Time;durP1;ratioP1;P1;durP2;ratioP2;P2;SDS_P1;SDS_P2;PMS_P1;PMS_P2;Temp;Humidity;BMP_temperature;BMP_pressure;BME280_temperature;BME280_humidity;BME280_pressure;Samples;Min_cycle;Max_cycle;Signal;HPM_P1;HPM_P2
2022/07/01 00:02:13;;;;;;;4.22;1.70;;;20.30;99.90;;;;;;5023350;28;20044;-70
2022/07/01 00:04:38;;;;;;;2.40;1.35;;;20.30;99.90;;;;;;5023918;28;20022;-70
2022/07/01 00:07:04;;;;;;;4.45;1.73;;;20.30;99.90;;;;;;5024209;28;20033;-70
2022/07/01 00:09:30;;;;;;;1.88;1.40;;;20.20;99.90;;;;;;5024287;28;20038;-70
2022/07/01 00:11:56;;;;;;;2.15;1.38;;;20.20;99.90;;;;;;5023837;28;20021;-71
2022/07/01 00:14:26;;;;;;;4.30;1.98;;;20.20;99.90;;;;;;5024525;28;20053;-70
2022/07/01 00:16:51;;;;;;;2.42;1.75;;;20.20;99.90;;;;;;5024465;28;20018;-71
2022/07/01 00:19:17;;;;;;;1.80;1.38;;;20.10;99.90;;;;;;5024082;28;20508;-70
2022/07/01 00:21:43;;;;;;;1.58;1.30;;;20.10;99.90;;;;;;5024190;28;20091;-71
2022/07/01 00:24:09;;;;;;;2.58;1.55;;;20.10;99.90;;;;;;5022741;28;20045;-71
2022/07/01 00:26:34;;;;;;;1.30;1.20;;;20.10;99.90;;;;;;5023773;28;20025;-71
2022/07/01 00:29:00;;;;;;;3.60;1.52;;;20.00;99.90;;;;;;5023850;28;20028;-71
2022/07/01 00:31:26;;;;;;;10.38;1.20;;;20.00;99.90;;;;;;5023959;28;20034;-72
2022/07/01 00:33:52;;;;;;;2.30;1.15;;;19.90;99.90;;;;;;5023510;28;20025;-72
2022/07/01 00:36:17;;;;;;;1.85;1.23;;;19.90;99.90;;;;;;5024121;28;20029;-72
2022/07/01 00:38:43;;;;;;;3.40;1.90;;;19.90;99.90;;;;;;5023411;28;20113;-71
2022/07/01 00:41:08;;;;;;;2.33;1.90;;;19.80;99.90;;;;;;5023233;28;20041;-71
2022/07/01 00:43:36;;;;;;;2.40;1.45;;;19.80;99.90;;;;;;5023293;28;20033;-71
2022/07/01 00:46:02;;;;;;;3.47;1.60;;;19.80;99.90;;;;;;5022804;28;20036;-70
2022/07/01 00:48:27;;;;;;;2.15;1.60;;;19.80;99.90;;;;;;5023583;28;20081;-71
2022/07/01 00:50:53;;;;;;;4.03;1.90;;;19.70;99.90;;;;;;5023658;28;20030;-71
2022/07/01 00:53:19;;;;;;;3.38;1.95;;;19.70;99.90;;;;;;5023436;28;20665;-71
2022/07/01 00:55:45;;;;;;;1.73;1.40;;;19.60;99.90;;;;;;5022907;28;20056;-72
2022/07/01 00:58:11;;;;;;;2.30;1.65;;;19.60;99.90;;;;;;5023488;28;20026;-70
2022/07/01 01:00:40;;;;;;;4.22;2.75;;;19.50;99.90;;;;;;5022976;28;20137;-71
2022/07/01 01:03:10;;;;;;;7.07;2.22;;;19.50;99.90;;;;;;5023020;28;20037;-71
2022/07/01 01:05:36;;;;;;;2.78;2.00;;;19.50;99.90;;;;;;5022630;28;20042;-74
2022/07/01 01:08:02;;;;;;;3.53;2.20;;;19.40;99.90;;;;;;5022955;28;20025;-69
2022/07/01 01:10:28;;;;;;;4.00;2.53;;;19.40;99.90;;;;;;5023246;28;20129;-73
2022/07/01 01:12:55;;;;;;;3.42;2.53;;;19.40;99.90;;;;;;5022170;28;20112;-73
2022/07/01 01:15:21;;;;;;;3.92;2.35;;;19.40;99.90;;;;;;5022708;28;20030;-71
2022/07/01 01:17:48;;;;;;;6.57;2.60;;;19.40;99.90;;;;;;5022949;28;20038;-72
2022/07/01 01:20:18;;;;;;;3.63;2.47;;;19.30;99.90;;;;;;5022943;28;20082;-70
2022/07/01 01:22:46;;;;;;;4.32;2.80;;;19.30;99.90;;;;;;5029814;28;20468;-73
2022/07/01 01:25:12;;;;;;;3.85;2.75;;;19.30;99.90;;;;;;5022627;28;20026;-72
2022/07/01 01:27:37;;;;;;;6.55;3.20;;;19.30;99.90;;;;;;5022487;28;20037;-72
2022/07/01 01:30:10;;;;;;;4.82;2.72;;;19.30;99.90;;;;;;5022564;28;20398;-71
2022/07/01 01:32:36;;;;;;;3.95;2.65;;;19.20;99.90;;;;;;5022713;28;20026;-73
2022/07/01 01:35:02;;;;;;;5.18;2.80;;;19.10;99.90;;;;;;5022069;28;20109;-76
2022/07/01 01:37:31;;;;;;;5.65;2.85;;;19.10;99.90;;;;;;5022648;28;20520;-73
2022/07/01 01:39:58;;;;;;;3.38;2.60;;;19.10;99.90;;;;;;5022437;28;20038;-76
2022/07/01 01:42:23;;;;;;;3.40;2.30;;;19.00;99.90;;;;;;5022371;28;20021;-76
2022/07/01 01:44:49;;;;;;;12.85;2.88;;;19.00;99.90;;;;;;5020950;28;20053;-77
2022/07/01 01:47:15;;;;;;;4.50;3.15;;;19.00;99.90;;;;;;5020918;28;20076;-71
2022/07/01 01:49:41;;;;;;;5.63;3.75;;;18.80;99.90;;;;;;5022054;28;20037;-74
2022/07/01 01:52:06;;;;;;;5.75;3.60;;;18.70;99.90;;;;;;5022288;28;20105;-72
2022/07/01 01:54:32;;;;;;;7.80;3.80;;;18.60;99.90;;;;;;5022757;28;20026;-73
2022/07/01 01:57:01;;;;;;;6.47;3.30;;;18.60;99.90;;;;;;5022232;28;20057;-71
2022/07/01 01:59:31;;;;;;;10.90;3.70;;;18.50;99.90;;;;;;5021939;28;20032;-76
2022/07/01 02:01:57;;;;;;;5.43;3.10;;;18.40;99.90;;;;;;5022095;28;20068;-74
2022/07/01 02:04:23;;;;;;;13.05;3.30;;;18.20;99.90;;;;;;5022139;28;20022;-73
2022/07/01 02:06:50;;;;;;;3.38;2.30;;;18.20;99.90;;;;;;5022287;28;20022;-72
2022/07/01 02:09:17;;;;;;;8.98;3.33;;;18.10;99.90;;;;;;5021463;28;20029;-72
2022/07/01 02:11:43;;;;;;;3.78;2.28;;;17.90;99.90;;;;;;5022076;28;20022;-73
2022/07/01 02:14:08;;;;;;;3.13;1.77;;;17.90;99.90;;;;;;5022191;28;20048;-74
2022/07/01 02:16:34;;;;;;;8.85;2.35;;;17.90;99.90;;;;;;5021316;28;20421;-73
2022/07/01 02:19:01;;;;;;;7.15;3.03;;;17.90;99.90;;;;;;5021678;28;20034;-73
2022/07/01 02:21:28;;;;;;;3.38;1.90;;;17.80;99.90;;;;;;5021597;28;20040;-71
2022/07/01 02:23:53;;;;;;;3.63;1.52;;;17.80;99.90;;;;;;5021890;28;20474;-73
2022/07/01 02:26:19;;;;;;;8.73;1.85;;;17.70;99.90;;;;;;5021539;28;20045;-73
2022/07/01 02:28:45;;;;;;;3.38;1.30;;;17.70;99.90;;;;;;5022171;28;20033;-71
2022/07/01 02:31:10;;;;;;;4.10;1.70;;;17.70;99.90;;;;;;5020809;28;20057;-74
2022/07/01 02:33:36;;;;;;;2.38;1.48;;;17.70;99.90;;;;;;5021609;28;20037;-74
2022/07/01 02:36:02;;;;;;;2.60;1.40;;;17.50;99.90;;;;;;5021209;28;20062;-73
2022/07/01 02:38:27;;;;;;;10.05;1.95;;;17.40;99.90;;;;;;5021743;28;20029;-72
2022/07/01 02:40:54;;;;;;;2.92;1.67;;;17.30;99.90;;;;;;5021930;28;20065;-73
2022/07/01 02:43:19;;;;;;;9.35;2.40;;;17.10;99.90;;;;;;5021857;28;20040;-72
2022/07/01 02:45:47;;;;;;;3.22;1.45;;;17.10;99.90;;;;;;5021493;28;20093;-70
2022/07/01 02:48:13;;;;;;;10.57;2.30;;;17.00;99.90;;;;;;5021355;28;20437;-72
2022/07/01 02:50:38;;;;;;;4.43;1.77;;;16.90;99.90;;;;;;5021489;28;20022;-72
2022/07/01 02:53:07;;;;;;;2.72;1.38;;;16.90;99.90;;;;;;5021385;28;20494;-73
2022/07/01 02:55:33;;;;;;;14.40;2.65;;;16.90;99.90;;;;;;5020465;28;20072;-72
2022/07/01 02:57:59;;;;;;;5.75;1.70;;;17.00;99.90;;;;;;5021663;28;20034;-70
2022/07/01 03:00:25;;;;;;;4.90;1.58;;;16.90;99.90;;;;;;5021080;28;20098;-71
2022/07/01 03:02:51;;;;;;;4.25;2.15;;;16.90;99.90;;;;;;5021700;28;20366;-71
2022/07/01 03:05:16;;;;;;;6.47;1.33;;;16.80;99.90;;;;;;5021715;28;20033;-73
2022/07/01 03:07:43;;;;;;;1.58;0.80;;;16.70;99.90;;;;;;5020988;28;20037;-72
2022/07/01 03:10:09;;;;;;;12.15;1.63;;;16.80;99.90;;;;;;5021382;28;20121;-72
2022/07/01 03:12:35;;;;;;;5.07;1.48;;;16.80;99.90;;;;;;5021294;28;20022;-73
2022/07/01 03:15:13;;;;;;;3.05;1.60;;;16.90;99.90;;;;;;5021342;28;20040;-73
2022/07/01 03:17:43;;;;;;;4.28;1.35;;;16.80;99.90;;;;;;5020891;28;20030;-74
2022/07/01 03:20:11;;;;;;;2.53;1.23;;;16.80;99.90;;;;;;5020643;28;20437;-73
2022/07/01 03:22:37;;;;;;;6.78;1.40;;;16.90;99.90;;;;;;5021658;28;20037;-74
2022/07/01 03:25:04;;;;;;;3.55;1.30;;;16.90;99.90;;;;;;5021525;28;20026;-70
2022/07/01 03:27:30;;;;;;;4.05;1.35;;;16.90;99.90;;;;;;5019653;28;20098;-74
2022/07/01 03:29:55;;;;;;;6.32;1.75;;;16.80;99.90;;;;;;5020998;28;20025;-75
2022/07/01 03:32:22;;;;;;;3.63;1.33;;;16.70;99.90;;;;;;5021524;28;20064;-72
2022/07/01 03:34:49;;;;;;;1.95;1.13;;;16.90;99.90;;;;;;5021461;28;20030;-73
2022/07/01 03:37:16;;;;;;;4.47;1.65;;;16.90;99.90;;;;;;5021257;28;20022;-73
2022/07/01 03:39:42;;;;;;;3.00;1.65;;;16.90;99.90;;;;;;5024882;28;20022;-72
2022/07/01 03:42:09;;;;;;;2.70;1.20;;;16.80;99.90;;;;;;5024051;28;20084;-73
2022/07/01 03:44:35;;;;;;;1.38;1.05;;;16.80;99.90;;;;;;5024897;28;20026;-72
2022/07/01 03:47:02;;;;;;;1.88;1.50;;;16.80;99.90;;;;;;5023729;28;20041;-74
2022/07/01 03:49:28;;;;;;;1.83;1.20;;;16.80;99.90;;;;;;5024153;28;20026;-74
2022/07/01 03:51:55;;;;;;;7.22;1.20;;;16.80;99.90;;;;;;5024572;28;20052;-73
2022/07/01 03:54:30;;;;;;;4.97;2.05;;;16.80;99.90;;;;;;5024391;28;20029;-74
2022/07/01 03:57:00;;;;;;;1.25;0.90;;;16.80;99.90;;;;;;5024636;28;20034;-75
2022/07/01 03:59:28;;;;;;;2.97;1.13;;;16.80;99.90;;;;;;5024900;28;20033;-71
2022/07/01 04:01:54;;;;;;;2.13;0.70;;;16.80;99.90;;;;;;5023958;28;20053;-74
2022/07/01 04:04:20;;;;;;;5.38;0.98;;;16.80;99.90;;;;;;5024078;28;20554;-75
2022/07/01 04:06:47;;;;;;;1.38;0.95;;;16.70;99.90;;;;;;5023953;28;20049;-74
2022/07/01 04:09:15;;;;;;;3.83;1.02;;;16.80;99.90;;;;;;5022524;28;20018;-72
2022/07/01 04:11:45;;;;;;;0.90;0.55;;;16.70;99.90;;;;;;5023992;28;20032;-72
2022/07/01 04:14:11;;;;;;;2.10;0.77;;;16.70;99.90;;;;;;5024027;28;20025;-72
2022/07/01 04:16:37;;;;;;;1.75;0.68;;;16.70;99.90;;;;;;5023783;28;20022;-72
2022/07/01 04:19:04;;;;;;;5.15;1.08;;;16.70;99.90;;;;;;5024232;28;20470;-72
2022/07/01 04:24:14;;;;;;;;;;;16.70;99.90;;;;;;5024359;28;20041;-72
2022/07/01 04:26:40;;;;;;;2.72;1.05;;;16.70;99.90;;;;;;5022674;28;19906;-71
2022/07/01 04:29:07;;;;;;;3.72;1.30;;;16.60;99.90;;;;;;5022217;28;20383;-73
2022/07/01 04:31:33;;;;;;;3.38;0.82;;;16.60;99.90;;;;;;5023637;28;20022;-73
2022/07/01 04:33:59;;;;;;;5.32;1.00;;;16.70;99.90;;;;;;5022627;28;20018;-71
2022/07/01 04:36:25;;;;;;;1.40;0.52;;;16.60;99.90;;;;;;5023320;28;20041;-70
2022/07/01 04:38:50;;;;;;;2.22;0.70;;;16.60;99.90;;;;;;5023426;28;20049;-71
2022/07/01 04:44:00;;;;;;;1.05;0.70;;;16.50;99.90;;;;;;5022653;28;20052;-72
2022/07/01 04:46:26;;;;;;;0.90;0.77;;;16.40;99.90;;;;;;5023128;28;20046;-75
2022/07/01 04:48:52;;;;;;;4.47;1.00;;;16.30;99.90;;;;;;5022234;28;20040;-70
2022/07/01 04:51:18;;;;;;;1.98;0.80;;;16.40;99.90;;;;;;5021781;28;20029;-70
2022/07/01 04:53:43;;;;;;;0.90;0.60;;;16.30;99.90;;;;;;5023628;28;20557;-72
2022/07/01 04:56:09;;;;;;;1.30;0.85;;;16.30;99.90;;;;;;5021232;28;20018;-71
2022/07/01 04:58:42;;;;;;;2.28;0.85;;;16.30;99.90;;;;;;5023425;28;20394;-70
2022/07/01 05:01:08;;;;;;;4.28;0.98;;;16.30;99.90;;;;;;5021099;28;20093;-73
2022/07/01 05:03:34;;;;;;;0.63;0.63;;;16.40;99.90;;;;;;5023270;28;20045;-72
2022/07/01 05:06:00;;;;;;;2.38;1.08;;;16.30;99.90;;;;;;5020015;28;20022;-71
2022/07/01 05:08:26;;;;;;;0.98;0.52;;;16.20;99.90;;;;;;5022777;28;20018;-72
2022/07/01 05:10:52;;;;;;;1.70;1.02;;;16.20;99.90;;;;;;5021631;28;20033;-70
2022/07/01 05:13:17;;;;;;;5.30;1.30;;;16.10;99.90;;;;;;5021245;28;20034;-70
2022/07/01 05:15:43;;;;;;;2.55;0.90;;;16.00;99.90;;;;;;5021680;28;20030;-71
2022/07/01 05:23:38;;;;;;;1.95;0.68;;;16.00;99.90;;;;;;5022183;28;20068;-71
2022/07/01 05:26:04;;;;;;;0.88;0.52;;;15.90;99.90;;;;;;5021946;28;20018;-72
2022/07/01 05:28:30;;;;;;;2.28;1.08;;;15.90;99.90;;;;;;5022182;28;20076;-72
2022/07/01 05:30:56;;;;;;;0.95;0.77;;;15.90;99.90;;;;;;5021638;28;20647;-71
2022/07/01 05:33:26;;;;;;;4.15;0.90;;;15.80;99.90;;;;;;5020678;28;20021;-70
2022/07/01 05:35:52;;;;;;;5.32;1.40;;;15.80;99.90;;;;;;5022953;28;20026;-73
2022/07/01 05:38:18;;;;;;;2.28;1.02;;;15.80;99.90;;;;;;5022136;28;20030;-74
2022/07/01 05:40:44;;;;;;;2.97;0.88;;;15.80;99.90;;;;;;5019814;28;20034;-74
2022/07/01 05:43:09;;;;;;;1.00;0.70;;;15.80;99.90;;;;;;5019354;28;20508;-71
2022/07/01 05:45:35;;;;;;;9.75;0.90;;;15.80;99.90;;;;;;5021351;28;20033;-74
2022/07/01 05:48:02;;;;;;;0.93;0.57;;;15.80;99.90;;;;;;5021766;28;20047;-69
2022/07/01 05:50:28;;;;;;;0.70;0.60;;;15.80;99.90;;;;;;5022456;28;20101;-73
2022/07/01 05:52:54;;;;;;;1.52;0.88;;;15.90;99.90;;;;;;5020835;28;20057;-73
2022/07/01 05:55:19;;;;;;;1.95;0.95;;;15.70;99.90;;;;;;5020479;28;20385;-74
2022/07/01 05:57:45;;;;;;;1.80;0.85;;;15.70;99.90;;;;;;5022011;28;20030;-73
2022/07/01 06:00:11;;;;;;;1.13;0.82;;;15.80;99.90;;;;;;5022011;28;20519;-74
2022/07/01 06:02:37;;;;;;;2.55;1.17;;;15.80;99.90;;;;;;5020993;28;20057;-74
2022/07/01 06:05:03;;;;;;;0.77;0.68;;;15.80;99.90;;;;;;5019521;28;20022;-74
2022/07/01 06:07:30;;;;;;;2.35;0.88;;;15.90;99.90;;;;;;5018896;28;20026;-73
2022/07/01 06:09:57;;;;;;;0.90;0.82;;;15.90;99.90;;;;;;5019096;28;20064;-72
2022/07/01 06:12:23;;;;;;;4.63;0.98;;;15.90;99.90;;;;;;5021727;28;20093;-73
2022/07/01 06:14:49;;;;;;;1.63;1.00;;;16.00;99.90;;;;;;5020894;28;20034;-73
2022/07/01 06:17:16;;;;;;;1.05;0.95;;;16.00;99.90;;;;;;5021950;28;20053;-75
2022/07/01 06:19:48;;;;;;;1.70;1.13;;;15.90;99.90;;;;;;5019702;28;20454;-73
2022/07/01 06:22:17;;;;;;;1.10;1.00;;;15.90;99.90;;;;;;5019945;28;20029;-73
2022/07/01 06:24:44;;;;;;;2.80;1.40;;;16.10;99.90;;;;;;5020110;28;20064;-73
2022/07/01 06:27:10;;;;;;;1.48;1.00;;;16.00;99.90;;;;;;5021401;28;20703;-73
2022/07/01 06:29:36;;;;;;;1.73;1.13;;;16.10;99.90;;;;;;5021606;28;20036;-71
2022/07/01 06:32:04;;;;;;;1.23;1.10;;;16.20;99.90;;;;;;5018242;28;20018;-72
2022/07/01 06:34:30;;;;;;;2.05;1.23;;;16.20;99.90;;;;;;5019967;28;20030;-74
2022/07/01 06:36:56;;;;;;;1.83;1.30;;;16.20;99.90;;;;;;5019375;28;20061;-73
2022/07/01 06:39:22;;;;;;;2.83;1.20;;;16.20;99.90;;;;;;5019076;28;20076;-73
2022/07/01 06:41:47;;;;;;;2.28;1.40;;;16.20;99.90;;;;;;5020704;28;20037;-73
2022/07/01 06:44:13;;;;;;;2.78;1.00;;;16.20;99.90;;;;;;5018339;28;20589;-73
2022/07/01 06:46:39;;;;;;;1.50;1.35;;;16.20;99.90;;;;;;5018552;28;20042;-75
2022/07/01 06:49:05;;;;;;;2.97;1.45;;;16.30;99.90;;;;;;5017154;28;20068;-73
2022/07/01 06:51:32;;;;;;;1.85;1.42;;;16.30;99.90;;;;;;5012749;28;20025;-70
2022/07/01 06:53:58;;;;;;;4.40;2.15;;;16.30;99.90;;;;;;5017986;28;20101;-73
2022/07/01 06:56:24;;;;;;;3.10;1.42;;;16.30;99.90;;;;;;5020154;28;20076;-73
2022/07/01 06:58:50;;;;;;;2.50;1.52;;;16.40;99.90;;;;;;5020505;28;20034;-71
2022/07/01 07:01:16;;;;;;;1.52;1.10;;;16.40;99.90;;;;;;5020092;28;20041;-71
2022/07/01 07:03:41;;;;;;;1.75;1.17;;;16.50;99.90;;;;;;5020479;28;20218;-73
2022/07/01 07:06:07;;;;;;;1.60;1.13;;;16.40;99.90;;;;;;5021283;28;20041;-73
2022/07/01 07:08:34;;;;;;;2.30;1.17;;;16.50;99.90;;;;;;5020251;28;20025;-73
2022/07/01 07:11:00;;;;;;;1.70;1.10;;;16.50;99.90;;;;;;5022524;28;20030;-74
2022/07/01 07:13:25;;;;;;;2.05;1.42;;;16.50;99.90;;;;;;5023837;28;20029;-73
2022/07/01 07:15:52;;;;;;;2.03;1.33;;;16.50;99.90;;;;;;5025090;28;20026;-72
2022/07/01 07:18:17;;;;;;;1.95;1.30;;;16.60;99.90;;;;;;5025418;28;20026;-72
2022/07/01 07:20:43;;;;;;;2.85;1.33;;;16.50;99.90;;;;;;5021141;28;20049;-73
2022/07/01 07:23:09;;;;;;;1.90;1.10;;;16.50;99.90;;;;;;5023197;28;20462;-70
2022/07/01 07:25:34;;;;;;;3.28;1.63;;;16.40;99.90;;;;;;5024265;28;20046;-73
2022/07/01 07:28:00;;;;;;;2.60;1.80;;;16.30;99.90;;;;;;5022846;28;20025;-73
2022/07/01 07:30:26;;;;;;;3.25;1.80;;;16.40;99.90;;;;;;5022976;28;20026;-71
2022/07/01 07:32:51;;;;;;;2.22;1.73;;;16.30;99.90;;;;;;5023531;28;20154;-73
2022/07/01 07:35:17;;;;;;;3.28;1.98;;;16.20;99.90;;;;;;5024078;28;20034;-71
2022/07/01 07:37:43;;;;;;;2.95;1.83;;;16.20;99.90;;;;;;5023330;28;20026;-73
2022/07/01 07:40:18;;;;;;;2.75;1.90;;;16.30;99.90;;;;;;5022172;28;20552;-74
2022/07/01 07:42:45;;;;;;;3.63;2.17;;;16.20;99.90;;;;;;5023009;28;20061;-72
2022/07/01 07:45:11;;;;;;;2.83;2.10;;;16.20;99.90;;;;;;5022589;28;20021;-76
2022/07/01 07:47:38;;;;;;;3.03;1.90;;;16.30;99.90;;;;;;5022541;28;20042;-73
2022/07/01 07:50:04;;;;;;;9.07;2.42;;;16.20;99.90;;;;;;5022975;28;20048;-71
2022/07/01 07:52:30;;;;;;;2.75;1.98;;;16.20;99.90;;;;;;5022396;28;20505;-73
2022/07/01 07:54:57;;;;;;;3.47;2.08;;;16.30;99.90;;;;;;5022763;28;20025;-72
2022/07/01 07:57:22;;;;;;;3.83;2.05;;;16.30;99.90;;;;;;5022310;28;20025;-75
2022/07/01 07:59:48;;;;;;;5.55;2.20;;;16.40;99.90;;;;;;5024469;28;20493;-72
2022/07/01 08:02:14;;;;;;;4.90;2.33;;;16.40;99.90;;;;;;5022778;28;20045;-72
2022/07/01 08:04:40;;;;;;;2.83;1.65;;;16.50;99.90;;;;;;5023106;28;20022;-71
2022/07/01 08:07:05;;;;;;;3.72;2.05;;;16.60;99.90;;;;;;5024147;28;20026;-73
2022/07/01 08:09:34;;;;;;;6.20;2.75;;;16.60;99.90;;;;;;5023225;28;20048;-72
2022/07/01 08:12:01;;;;;;;4.07;2.05;;;16.60;99.90;;;;;;5024042;28;20056;-70
2022/07/01 08:14:33;;;;;;;4.47;2.58;;;16.80;99.90;;;;;;5020977;28;20094;-75
2022/07/01 08:16:59;;;;;;;3.35;2.33;;;16.80;99.90;;;;;;5023921;28;20065;-71
2022/07/01 08:19:25;;;;;;;4.13;2.25;;;16.80;99.90;;;;;;5024433;28;20352;-76
2022/07/01 08:21:51;;;;;;;4.85;2.65;;;16.80;99.90;;;;;;5025464;28;20072;-73
2022/07/01 08:24:17;;;;;;;5.28;2.70;;;16.80;99.90;;;;;;5022971;28;20068;-73
2022/07/01 08:26:42;;;;;;;5.30;2.35;;;16.70;99.90;;;;;;5023746;28;20852;-74
2022/07/01 08:29:11;;;;;;;4.97;2.78;;;16.60;99.90;;;;;;5021506;28;20026;-74
2022/07/01 08:31:46;;;;;;;6.90;3.85;;;16.60;99.90;;;;;;5020668;28;20125;-72
2022/07/01 08:34:16;;;;;;;6.28;3.78;;;16.50;99.90;;;;;;5021387;28;20069;-73
2022/07/01 08:36:42;;;;;;;4.88;3.00;;;16.50;99.90;;;;;;5021547;28;20033;-73
2022/07/01 08:39:08;;;;;;;7.22;4.20;;;16.50;99.90;;;;;;5022511;28;20134;-73
2022/07/01 08:41:34;;;;;;;7.57;4.18;;;16.50;99.90;;;;;;5023431;28;20037;-72
2022/07/01 08:44:00;;;;;;;7.32;4.25;;;16.50;99.90;;;;;;5021645;28;20023;-73
2022/07/01 08:46:29;;;;;;;8.85;4.60;;;16.50;99.90;;;;;;5023192;28;20045;-74
2022/07/01 08:48:55;;;;;;;5.32;3.80;;;16.50;99.90;;;;;;5023400;28;20048;-76
2022/07/01 08:51:20;;;;;;;9.85;5.63;;;16.40;99.90;;;;;;5020450;28;20129;-75
2022/07/01 08:53:46;;;;;;;6.80;4.60;;;16.40;99.90;;;;;;5021472;28;20053;-73
2022/07/01 08:58:56;;;;;;;10.82;5.70;;;16.40;99.90;;;;;;5019273;28;20057;-70
2022/07/01 09:01:26;;;;;;;11.82;6.53;;;16.40;99.90;;;;;;5022703;28;20402;-71
2022/07/01 09:03:55;;;;;;;12.55;5.93;;;16.40;99.90;;;;;;5023217;28;20086;-74
2022/07/01 09:06:24;;;;;;;15.50;6.13;;;16.30;99.90;;;;;;5022258;28;20017;-74
2022/07/01 09:08:49;;;;;;;8.65;5.85;;;16.40;99.90;;;;;;5022892;28;20385;-72
2022/07/01 09:11:18;;;;;;;27.60;6.65;;;16.40;99.90;;;;;;5023041;28;20061;-73
2022/07/01 09:13:44;;;;;;;14.95;5.78;;;16.30;99.90;;;;;;5022606;28;20564;-73
2022/07/01 09:16:15;;;;;;;10.93;7.10;;;16.40;99.90;;;;;;5022637;28;20021;-71
2022/07/01 09:19:00;;;;;;;11.30;6.75;;;16.40;99.90;;;;;;5021895;28;20037;-75
2022/07/01 09:21:29;;;;;;;;;;;16.50;99.90;;;;;;5022291;28;20045;-74
2022/07/01 09:23:56;;;;;;;16.25;6.82;;;16.50;99.90;;;;;;5020224;28;19905;-73
2022/07/01 09:26:23;;;;;;;13.32;7.28;;;16.50;99.90;;;;;;5022554;28;20061;-72
2022/07/01 09:29:11;;;;;;;;;;;;;;;;;;;;;
2022/07/01 09:31:48;;;;;;;13.30;7.55;;;16.50;99.90;;;;;;5021912;28;20102;-72
2022/07/01 09:34:14;;;;;;;15.05;6.72;;;16.50;99.90;;;;;;5021578;28;20028;-74
2022/07/01 09:36:43;;;;;;;11.93;6.93;;;16.50;99.90;;;;;;5022732;28;20116;-76
2022/07/01 09:39:17;;;;;;;15.02;8.15;;;16.40;99.90;;;;;;5018493;28;20088;-73
2022/07/01 09:41:47;;;;;;;13.77;8.15;;;16.50;99.90;;;;;;5022630;28;20532;-74
2022/07/01 09:44:23;;;;;;;12.75;7.63;;;16.50;99.90;;;;;;5022547;28;20034;-76
2022/07/01 09:46:56;;;;;;;15.77;8.32;;;16.60;99.90;;;;;;5019822;28;20058;-74
2022/07/01 09:49:23;;;;;;;9.45;6.57;;;16.60;99.90;;;;;;5022364;28;20033;-73
2022/07/01 09:51:51;;;;;;;15.27;7.63;;;16.70;99.90;;;;;;5020011;28;20064;-72
2022/07/01 09:54:18;;;;;;;15.32;6.93;;;16.70;99.90;;;;;;5021064;28;20037;-71
2022/07/01 09:56:44;;;;;;;13.43;6.93;;;16.70;99.90;;;;;;5021755;28;20081;-72
2022/07/01 09:59:09;;;;;;;13.73;6.28;;;16.70;99.90;;;;;;5018027;28;20030;-72
2022/07/01 10:01:37;;;;;;;14.73;6.70;;;16.70;99.90;;;;;;5021944;28;20034;-73
2022/07/01 10:04:06;;;;;;;10.82;7.22;;;16.70;99.90;;;;;;5021649;28;20036;-71
2022/07/01 10:06:41;;;;;;;13.05;5.90;;;16.80;99.90;;;;;;5020267;28;20030;-72
2022/07/01 10:09:15;;;;;;;11.63;5.03;;;16.70;99.90;;;;;;5016150;28;20501;-72
2022/07/01 10:11:41;;;;;;;;;;;16.70;99.90;;;;;;5012213;28;20041;-73
2022/07/01 10:14:09;;;;;;;13.50;7.03;;;16.70;99.90;;;;;;5018721;28;19905;-76
2022/07/01 10:16:38;;;;;;;9.30;5.85;;;16.70;99.90;;;;;;5019586;28;20026;-72
2022/07/01 10:19:26;;;;;;;10.05;5.88;;;16.70;99.90;;;;;;5011953;28;20406;-74
2022/07/01 10:22:00;;;;;;;10.63;4.70;;;16.70;99.90;;;;;;5019370;28;20045;-73
2022/07/01 10:24:29;;;;;;;15.90;6.70;;;16.80;99.90;;;;;;5017887;28;20032;-73
2022/07/01 10:27:00;;;;;;;9.73;5.68;;;16.80;99.90;;;;;;5017023;28;20034;-72
2022/07/01 10:29:36;;;;;;;17.30;6.10;;;16.80;99.90;;;;;;5018266;28;20026;-71
2022/07/01 10:32:08;;;;;;;10.32;6.05;;;16.90;99.90;;;;;;5019461;28;20030;-69
2022/07/01 10:34:41;;;;;;;10.77;5.85;;;16.90;99.90;;;;;;5021523;28;20381;-73
2022/07/01 10:37:11;;;;;;;11.07;5.95;;;17.00;99.90;;;;;;5020444;28;20029;-73
2022/07/01 10:40:00;;;;;;;9.57;6.05;;;16.90;99.90;;;;;;5019615;28;20037;-70
2022/07/01 10:42:36;;;;;;;11.70;6.15;;;17.00;99.90;;;;;;5017927;28;20041;-70
2022/07/01 10:45:09;;;;;;;9.27;5.95;;;16.90;99.90;;;;;;5016577;28;20125;-70
2022/07/01 10:47:38;;;;;;;11.30;6.10;;;16.90;99.90;;;;;;5024893;28;20053;-71
2022/07/01 10:50:12;;;;;;;10.32;5.38;;;17.00;99.90;;;;;;5025986;28;20030;-70
2022/07/01 10:52:39;;;;;;;9.50;5.22;;;17.10;99.90;;;;;;5026966;28;20044;-72
2022/07/01 10:55:07;;;;;;;23.58;6.72;;;17.20;99.90;;;;;;5023625;28;20032;-71
2022/07/01 10:57:35;;;;;;;9.68;5.88;;;17.10;99.90;;;;;;5025487;28;20030;-70
2022/07/01 11:00:00;;;;;;;12.63;6.22;;;17.30;99.90;;;;;;5023818;28;20030;-72
2022/07/01 11:02:35;;;;;;;11.05;6.43;;;17.30;99.90;;;;;;5019300;28;20049;-72
2022/07/01 11:05:10;;;;;;;7.88;4.65;;;17.40;99.90;;;;;;5018707;28;20042;-72
2022/07/01 11:07:47;;;;;;;12.00;6.53;;;17.50;99.90;;;;;;5023013;28;20041;-72
2022/07/01 11:10:16;;;;;;;10.60;5.80;;;17.70;99.90;;;;;;5025816;28;20410;-71
2022/07/01 11:12:44;;;;;;;7.97;4.82;;;17.70;99.90;;;;;;5024155;28;20839;-71
2022/07/01 11:15:10;;;;;;;10.70;5.85;;;18.00;99.90;;;;;;5022814;28;20057;-72
2022/07/01 11:17:45;;;;;;;9.25;5.60;;;17.90;99.90;;;;;;5023640;28;20056;-72
2022/07/01 11:20:12;;;;;;;9.75;6.13;;;18.00;99.90;;;;;;5023112;28;20151;-71
2022/07/01 11:22:38;;;;;;;9.50;5.47;;;18.20;99.90;;;;;;5025997;28;20018;-73
2022/07/01 11:25:07;;;;;;;11.10;5.85;;;18.30;99.90;;;;;;5025363;28;20339;-73
2022/07/01 11:27:33;;;;;;;8.13;4.78;;;18.50;99.90;;;;;;5025408;28;20033;-74
2022/07/01 11:30:04;;;;;;;7.65;4.65;;;18.70;99.90;;;;;;5023714;28;20028;-72
2022/07/01 11:32:32;;;;;;;7.13;4.00;;;18.80;99.90;;;;;;5026817;28;20056;-73
2022/07/01 11:34:59;;;;;;;8.20;4.60;;;18.90;99.90;;;;;;5027262;28;20402;-73
2022/07/01 11:40:17;;;;;;;5.38;3.42;;;19.00;99.90;;;;;;5024466;28;20052;-73
2022/07/01 11:42:44;;;;;;;7.07;3.50;;;19.10;99.90;;;;;;5026285;28;20178;-73
2022/07/01 11:45:24;;;;;;;6.70;3.63;;;19.10;99.90;;;;;;5026151;28;20589;-69
2022/07/01 11:47:50;;;;;;;9.13;4.32;;;19.30;99.90;;;;;;5025448;28;20034;-71
2022/07/01 11:50:15;;;;;;;5.30;3.83;;;19.30;99.90;;;;;;5026672;28;20041;-71
2022/07/01 11:52:41;;;;;;;6.22;4.05;;;19.30;99.90;;;;;;5024745;28;20028;-69
2022/07/01 11:55:07;;;;;;;7.35;4.15;;;19.40;99.90;;;;;;5026489;28;20044;-71
2022/07/01 11:57:34;;;;;;;6.55;3.17;;;19.50;99.90;;;;;;5023183;28;20033;-70
2022/07/01 12:00:09;;;;;;;5.85;3.33;;;19.50;99.90;;;;;;5016523;28;20088;-74
2022/07/01 12:02:34;;;;;;;5.03;2.92;;;19.60;99.90;;;;;;5020475;28;20087;-70
2022/07/01 12:05:04;;;;;;;3.95;2.88;;;19.70;99.90;;;;;;5016519;28;20105;-71
2022/07/01 12:07:31;;;;;;;4.78;3.08;;;19.80;99.90;;;;;;5016607;28;20076;-71
2022/07/01 12:10:16;;;;;;;6.22;2.78;;;20.00;99.90;;;;;;5017368;28;20026;-74
2022/07/01 12:12:42;;;;;;;8.13;3.30;;;20.00;99.90;;;;;;5023293;28;20069;-71
2022/07/01 12:15:14;;;;;;;9.77;3.45;;;20.10;99.90;;;;;;5022307;28;20699;-72
2022/07/01 12:17:40;;;;;;;6.72;2.83;;;20.20;99.90;;;;;;5021714;28;20026;-71
2022/07/01 12:20:06;;;;;;;6.32;2.50;;;20.20;99.90;;;;;;5020644;28;20064;-73
2022/07/01 12:22:31;;;;;;;9.50;3.53;;;20.30;99.90;;;;;;5022042;28;20026;-73
2022/07/01 12:25:11;;;;;;;4.30;3.13;;;20.40;99.90;;;;;;5022219;28;20581;-73
2022/07/01 12:27:40;;;;;;;4.63;2.90;;;20.40;99.90;;;;;;5021396;28;20458;-72
2022/07/01 12:30:07;;;;;;;5.53;3.10;;;20.40;99.90;;;;;;5018467;28;20030;-71
2022/07/01 12:32:36;;;;;;;5.13;2.55;;;20.30;99.90;;;;;;5020930;28;20025;-72
2022/07/01 12:37:53;;;;;;;3.97;2.33;;;20.40;99.90;;;;;;5021936;28;20100;-71
2022/07/01 12:40:24;;;;;;;3.25;2.00;;;20.40;99.90;;;;;;5022892;28;20042;-68
2022/07/01 12:42:51;;;;;;;2.63;1.90;;;20.50;99.90;;;;;;5019519;28;20045;-71
2022/07/01 12:45:22;;;;;;;3.33;2.10;;;20.40;99.90;;;;;;5018922;28;20034;-72
2022/07/01 12:47:50;;;;;;;2.92;2.08;;;20.30;99.90;;;;;;5021182;28;20057;-72
2022/07/01 12:50:20;;;;;;;3.65;1.75;;;20.20;99.90;;;;;;5019371;28;20045;-73
2022/07/01 12:53:02;;;;;;;5.25;2.15;;;20.20;99.90;;;;;;5020890;28;20045;-70
2022/07/01 12:55:36;;;;;;;3.15;1.75;;;20.10;99.90;;;;;;5018030;28;20061;-72
2022/07/01 12:58:04;;;;;;;2.25;1.45;;;20.10;99.90;;;;;;5019309;28;20024;-70
2022/07/01 13:00:30;;;;;;;6.65;2.20;;;20.10;99.90;;;;;;5019987;28;20054;-73
2022/07/01 13:02:59;;;;;;;3.58;1.65;;;20.10;99.90;;;;;;5020818;28;20104;-74
2022/07/01 13:05:29;;;;;;;6.47;1.92;;;20.20;99.90;;;;;;5020520;28;20075;-70
2022/07/01 13:07:56;;;;;;;2.70;1.42;;;20.30;99.90;;;;;;5021486;28;20094;-74
2022/07/01 13:10:29;;;;;;;4.47;2.05;;;20.50;99.90;;;;;;5020126;28;20052;-74